Pagina principală
Imagini satelitare Vremea 15-zileClimăMare Cicloane Trăsnet AeroporturiÎntrebări Noutăţi Despre
Meteo : Europa Africa America de Nord America de Sud Asia Australia-Oceania Alte
Limbi Contact

Bucureşti-Băneasa, România

Aurel Vlaicu

Latitudine: 44-30N, Longitudine: 026-08E, Altitudine: 90 m


METAR: LRBS 272100Z VRB02KT 9999 OVC019 M01/M05 Q1026 NOSIG
TAF: LRBS 271700Z 2718/2818 09006KT 9999 BKN025 TEMPO 2810/2818 5000 -SN BKN010 BKN020 PROB30 2811/2815 -FZRA

Oră: 23:36 (21:36 UTC)

observaţii meteorologice

Raportul a fost facut 36 minute în urmă, la 21:00 UTC
Vânt 2 kt variabil
Temperatură -1°C
Umiditatea 74%
Presiune 1026 hPa
Vizibilitate 10 km sau mai mult
Total acoperit la o înălţime de 1900 ft

Unităţile de măsură

Prognoză

Raportul a fost facut 4 ore si 36 minute în urmă, la 17:00 UTC
Prognoza valabil de 27 la ora 18 UTC până 28 la ora 18 UTC
Vânt 6 kt de la Est
Vizibilitate 10 km sau mai mult
Fragmentat la o înălţime de 2500 ft
Temporar
de 28 la ora 10 UTC până 28 la ora 18 UTC
Vizibilitate: 5000 m
Fragmentat la o înălţime de 1000 ft
Fragmentat la o înălţime de 2000 ft
slabă Zăpadă
Probabilitate 30%
de 28 la ora 11 UTC până 28 la ora 15 UTC
slabă Ploaie care îngheaţă
Informaţiile de pe acest site fac obiectul unei denegări de responsabilitate
Meteo : Europa Africa America de Nord America de Sud Asia Australia-Oceania Alte
Imagini satelitare Vremea 15-zileClimăMare Cicloane Trăsnet AeroporturiÎntrebări Limbi Contact Noutăţi Despre